Terminal Aerodrome Forecast
Issued by NWS Detroit/Pontiac, MI

Home | Current Version | Previous Version | Text Only | Print | Product List | Glossary On
Versions: 1 2 3 4 5 6 7 8 9 10 11 12 13
285
FTUS43 KDTX 261128
TAFFNT
TAF
KFNT 261128Z 2612/2712 21010KT P6SM BKN045 BKN250
      TEMPO 2612/2614 5SM HZ BKN030 OVC045
     FM261900 23010KT P6SM BKN060 PROB30 2621/2624 2SM TSRA OVC030CB
     FM270100 18005KT P6SM SCT060 BKN120
     FM271000 20005KT 3SM BR SCT120 BKN250=

USA.gov is the U.S. government's official web portal to all federal, state and local government web resources and services.